createdAt,value
2023-03-30T00:01:00.624Z,1.70
2023-03-30T00:03:29.214Z,3.33
2023-03-30T00:06:05.327Z,2.80
2023-03-30T00:08:33.649Z,2.10
2023-03-30T00:11:02.122Z,2.37
2023-03-30T00:13:30.686Z,2.73
2023-03-30T00:15:58.318Z,2.40
2023-03-30T00:18:26.432Z,2.57
2023-03-30T00:20:55.748Z,2.03
2023-03-30T00:23:24.953Z,3.10
2023-03-30T00:25:52.794Z,2.17
2023-03-30T00:28:20.448Z,2.60
2023-03-30T00:30:48.706Z,2.70
2023-03-30T00:33:16.799Z,2.17
2023-03-30T00:35:44.578Z,3.50
2023-03-30T00:38:12.300Z,2.87
2023-03-30T00:40:41.364Z,3.47
2023-03-30T00:43:12.617Z,2.10
2023-03-30T00:45:40.973Z,2.13
2023-03-30T00:48:15.273Z,2.83
2023-03-30T00:50:45.992Z,2.07
2023-03-30T00:53:17.284Z,3.07
2023-03-30T00:55:48.384Z,3.27
2023-03-30T00:58:17.801Z,3.03
2023-03-30T01:00:47.245Z,2.63
2023-03-30T01:03:22.901Z,3.00
2023-03-30T01:05:51.609Z,3.00
2023-03-30T01:08:20.430Z,2.87
2023-03-30T01:10:49.384Z,2.37
2023-03-30T01:13:17.678Z,3.00
2023-03-30T01:16:09.952Z,3.10
2023-03-30T01:18:48.565Z,3.03
2023-03-30T01:21:43.531Z,2.40
2023-03-30T01:24:56.285Z,2.70
2023-03-30T01:27:52.697Z,2.70
2023-03-30T01:30:52.848Z,2.30
2023-03-30T01:33:53.776Z,2.70
2023-03-30T01:36:55.331Z,2.27
2023-03-30T01:39:37.162Z,2.70
2023-03-30T01:42:14.437Z,2.60
2023-03-30T01:44:45.992Z,2.83
2023-03-30T01:47:24.352Z,2.40
2023-03-30T01:49:59.153Z,2.77
2023-03-30T01:52:36.977Z,2.30
2023-03-30T01:55:12.621Z,2.70
2023-03-30T01:57:46.920Z,3.10
2023-03-30T02:00:18.973Z,2.50
2023-03-30T02:02:52.614Z,2.73
2023-03-30T02:05:22.365Z,3.77
2023-03-30T02:07:54.912Z,2.53
2023-03-30T02:10:28.436Z,3.20
2023-03-30T02:12:57.860Z,3.50
2023-03-30T02:15:27.514Z,2.63
2023-03-30T02:18:09.957Z,3.13
2023-03-30T02:20:39.048Z,3.50
2023-03-30T02:23:08.342Z,3.43
2023-03-30T02:25:39.006Z,2.87
2023-03-30T02:28:10.756Z,2.67
2023-03-30T02:30:42.470Z,3.27
2023-03-30T02:33:20.510Z,3.07
2023-03-30T02:36:04.435Z,3.00
2023-03-30T02:38:46.837Z,3.20
2023-03-30T02:41:28.325Z,2.67
2023-03-30T02:44:06.813Z,2.90
2023-03-30T02:46:54.198Z,3.40
2023-03-30T02:49:34.589Z,2.60
2023-03-30T02:52:12.328Z,2.70
2023-03-30T02:54:50.318Z,2.77
2023-03-30T02:57:31.096Z,3.20
2023-03-30T03:00:02.402Z,3.50
2023-03-30T03:02:35.601Z,2.50
2023-03-30T03:05:04.610Z,2.57
2023-03-30T03:07:34.100Z,3.10
2023-03-30T03:10:02.237Z,2.13
2023-03-30T03:12:31.779Z,2.73
2023-03-30T03:15:04.893Z,2.90
2023-03-30T03:17:34.741Z,3.23
2023-03-30T03:20:04.056Z,2.97
2023-03-30T03:22:32.232Z,3.40
2023-03-30T03:24:59.955Z,3.27
2023-03-30T03:27:27.614Z,2.97
2023-03-30T03:29:56.833Z,2.63
2023-03-30T03:32:24.724Z,3.13
2023-03-30T03:34:52.326Z,3.70
2023-03-30T03:37:20.338Z,3.23
2023-03-30T03:39:48.022Z,3.83
2023-03-30T03:42:15.642Z,3.50
2023-03-30T03:44:43.298Z,3.50
2023-03-30T03:47:15.261Z,3.57
2023-03-30T03:49:46.878Z,3.20
2023-03-30T03:52:14.548Z,2.57
2023-03-30T03:54:42.257Z,3.50
2023-03-30T03:57:09.907Z,3.30
2023-03-30T03:59:37.601Z,3.00
2023-03-30T04:02:05.689Z,3.00
2023-03-30T04:04:34.789Z,3.20
2023-03-30T04:07:02.562Z,3.40
2023-03-30T04:09:30.234Z,2.70
2023-03-30T04:12:11.644Z,3.10
2023-03-30T04:14:39.219Z,3.10
2023-03-30T04:17:09.809Z,3.07
2023-03-30T04:19:38.885Z,3.90
2023-03-30T04:22:06.970Z,3.40
2023-03-30T04:24:35.428Z,3.03
2023-03-30T04:27:03.320Z,3.17
2023-03-30T04:29:31.089Z,3.37
2023-03-30T04:32:02.716Z,3.50
2023-03-30T04:34:31.040Z,3.93
2023-03-30T04:37:00.264Z,3.73
2023-03-30T04:39:30.313Z,3.00
2023-03-30T04:41:58.397Z,3.20
2023-03-30T04:44:26.077Z,3.80
2023-03-30T04:46:53.997Z,4.00
2023-03-30T04:49:21.754Z,3.60
2023-03-30T04:51:49.561Z,4.13
2023-03-30T04:54:18.560Z,3.90
2023-03-30T04:56:46.436Z,3.50
2023-03-30T04:59:14.211Z,3.70
2023-03-30T05:01:41.963Z,3.53
2023-03-30T05:04:09.825Z,3.13
2023-03-30T05:06:37.988Z,3.70
2023-03-30T05:09:05.646Z,3.27
2023-03-30T05:11:34.787Z,3.17
2023-03-30T05:14:02.801Z,3.50
2023-03-30T05:16:31.356Z,3.47
2023-03-30T05:18:59.024Z,4.00
2023-03-30T05:21:26.925Z,4.20
2023-03-30T05:23:54.497Z,3.73
2023-03-30T05:26:25.208Z,3.40
2023-03-30T05:28:54.739Z,3.40
2023-03-30T05:31:22.787Z,3.30
2023-03-30T05:33:51.976Z,3.20
2023-03-30T05:36:19.963Z,3.53
2023-03-30T05:38:47.751Z,3.30
2023-03-30T05:41:15.689Z,4.10
2023-03-30T05:43:43.390Z,3.70
2023-03-30T05:46:12.420Z,3.60
2023-03-30T05:48:40.095Z,4.20
2023-03-30T05:51:08.907Z,3.87
2023-03-30T05:53:36.790Z,5.50
2023-03-30T05:56:04.625Z,4.37
2023-03-30T05:58:33.659Z,3.90
2023-03-30T06:01:01.966Z,3.90
2023-03-30T06:03:31.466Z,3.50
2023-03-30T06:05:59.432Z,4.50
2023-03-30T06:08:28.068Z,3.57
2023-03-30T06:10:57.118Z,3.27
2023-03-30T06:13:25.293Z,3.30
2023-03-30T06:15:53.189Z,3.63
2023-03-30T06:18:21.073Z,4.53
2023-03-30T06:20:51.723Z,3.83
2023-03-30T06:23:19.971Z,4.50
2023-03-30T06:25:52.609Z,3.93
2023-03-30T06:28:20.692Z,3.80
2023-03-30T06:30:49.359Z,4.20
2023-03-30T06:33:17.650Z,4.50
2023-03-30T06:35:47.127Z,4.27
2023-03-30T06:38:17.476Z,3.97
2023-03-30T06:40:45.411Z,4.50
2023-03-30T06:43:18.131Z,3.73
2023-03-30T06:45:51.230Z,5.33
2023-03-30T06:48:20.439Z,4.50
2023-03-30T06:50:48.761Z,2.90
2023-03-30T06:53:18.307Z,4.83
2023-03-30T06:55:46.518Z,4.23
2023-03-30T06:58:14.184Z,4.83
2023-03-30T07:00:43.816Z,3.77
2023-03-30T07:03:11.577Z,4.00
2023-03-30T07:05:39.293Z,3.50
2023-03-30T07:08:08.267Z,4.70
2023-03-30T07:10:37.353Z,4.87
2023-03-30T07:13:05.100Z,3.83
2023-03-30T07:15:32.800Z,3.87
2023-03-30T07:18:00.769Z,3.67
2023-03-30T07:20:28.650Z,3.30
2023-03-30T07:22:56.559Z,3.90
2023-03-30T07:25:24.321Z,4.10
2023-03-30T07:27:53.324Z,3.97
2023-03-30T07:30:22.808Z,4.03
2023-03-30T07:32:51.475Z,3.40
2023-03-30T07:35:19.547Z,3.77
2023-03-30T07:37:51.052Z,3.60
2023-03-30T07:40:19.544Z,3.90
2023-03-30T07:42:47.824Z,4.57
2023-03-30T07:45:17.280Z,4.10
2023-03-30T07:47:44.987Z,4.17
2023-03-30T07:50:12.865Z,4.70
2023-03-30T07:52:40.593Z,3.87
2023-03-30T07:55:09.213Z,4.23
2023-03-30T07:57:37.014Z,3.80
2023-03-30T08:00:08.192Z,3.10
2023-03-30T08:02:37.880Z,3.50
2023-03-30T08:05:06.915Z,3.70
2023-03-30T08:07:41.377Z,3.07
2023-03-30T08:10:10.272Z,2.80
2023-03-30T08:12:38.628Z,3.87
2023-03-30T08:15:07.379Z,3.87
2023-03-30T08:17:35.208Z,4.20
2023-03-30T08:20:08.781Z,3.33
2023-03-30T08:22:36.406Z,3.80
2023-03-30T08:25:04.837Z,3.20
2023-03-30T08:27:33.041Z,2.73
2023-03-30T08:30:00.810Z,3.60
2023-03-30T08:32:28.561Z,3.00
2023-03-30T08:34:56.369Z,3.17
2023-03-30T08:37:25.511Z,2.93
2023-03-30T08:39:53.374Z,3.23
2023-03-30T08:42:50.572Z,3.80
2023-03-30T08:45:18.718Z,2.73
2023-03-30T08:47:49.833Z,2.70
2023-03-30T08:50:20.401Z,3.20
2023-03-30T08:52:53.193Z,2.33
2023-03-30T08:55:25.315Z,2.37
2023-03-30T08:57:58.540Z,2.30
2023-03-30T09:00:34.515Z,2.30
2023-03-30T09:03:09.014Z,2.60
2023-03-30T09:05:46.192Z,2.70
2023-03-30T09:08:21.625Z,2.80
2023-03-30T09:10:53.355Z,2.40
2023-03-30T09:13:25.690Z,2.70
2023-03-30T09:15:58.702Z,2.30
2023-03-30T09:18:30.407Z,2.40
2023-03-30T09:21:00.636Z,3.33
2023-03-30T09:23:31.920Z,1.90
2023-03-30T09:26:07.157Z,2.60
2023-03-30T09:28:41.190Z,2.13
2023-03-30T09:31:19.259Z,1.90
2023-03-30T09:33:58.394Z,1.90
2023-03-30T09:36:31.283Z,3.20
2023-03-30T09:39:00.384Z,2.10
2023-03-30T09:41:43.080Z,2.13
2023-03-30T09:44:17.546Z,2.30
2023-03-30T09:46:45.334Z,3.40
2023-03-30T09:49:15.322Z,2.30
2023-03-30T09:51:58.066Z,1.83
2023-03-30T09:54:35.871Z,2.30
2023-03-30T09:57:03.602Z,2.37
2023-03-30T09:59:32.805Z,2.17
2023-03-30T10:02:19.807Z,2.60
2023-03-30T10:04:58.212Z,2.40
2023-03-30T10:07:28.386Z,2.13
2023-03-30T10:10:00.479Z,2.77
2023-03-30T10:12:29.805Z,2.60
2023-03-30T10:15:01.361Z,2.10
2023-03-30T10:17:29.654Z,2.70
2023-03-30T10:20:17.416Z,2.90
2023-03-30T10:22:53.572Z,3.30
2023-03-30T10:25:24.988Z,2.23
2023-03-30T10:27:55.869Z,2.13
2023-03-30T10:30:27.212Z,2.33
2023-03-30T10:32:58.314Z,2.67
2023-03-30T10:35:28.218Z,3.13
2023-03-30T10:37:58.651Z,2.27
2023-03-30T10:40:36.529Z,2.90
2023-03-30T10:43:06.608Z,4.20
2023-03-30T10:45:38.719Z,2.43
2023-03-30T10:48:35.725Z,3.13
2023-03-30T10:51:11.338Z,2.67
2023-03-30T10:53:49.098Z,3.13
2023-03-30T10:56:29.014Z,2.90
2023-03-30T10:59:16.099Z,3.00
2023-03-30T11:01:56.809Z,2.63
2023-03-30T11:04:29.393Z,2.90
2023-03-30T11:06:59.539Z,2.90
2023-03-30T11:09:34.002Z,2.40
2023-03-30T11:12:08.022Z,2.50
2023-03-30T11:14:43.320Z,2.70
2023-03-30T11:17:18.116Z,3.00
2023-03-30T11:19:51.258Z,3.37
2023-03-30T11:22:31.364Z,3.23
2023-03-30T11:25:01.190Z,3.07
2023-03-30T11:27:35.550Z,2.90
2023-03-30T11:30:14.438Z,2.30
2023-03-30T11:32:48.979Z,3.10
2023-03-30T11:35:25.502Z,2.97
2023-03-30T11:38:00.727Z,3.03
2023-03-30T11:40:33.287Z,3.73
2023-03-30T11:43:03.077Z,3.70
2023-03-30T11:45:48.588Z,3.33
2023-03-30T11:48:47.013Z,2.90
2023-03-30T11:51:37.049Z,2.87
2023-03-30T11:54:33.932Z,2.50
2023-03-30T11:57:07.444Z,3.03
2023-03-30T11:59:46.609Z,2.77
2023-03-30T12:02:25.625Z,2.97
2023-03-30T12:05:01.039Z,3.17
2023-03-30T12:07:39.529Z,2.87
2023-03-30T12:10:17.762Z,3.43
2023-03-30T12:12:49.312Z,3.00
2023-03-30T12:15:35.334Z,2.83
2023-03-30T12:18:12.703Z,3.30
2023-03-30T12:20:47.816Z,2.80
2023-03-30T12:23:28.827Z,3.67
2023-03-30T12:26:10.118Z,3.03
2023-03-30T12:29:04.914Z,3.37
2023-03-30T12:32:05.138Z,3.00
2023-03-30T12:34:35.480Z,3.30
2023-03-30T12:37:06.979Z,3.00
2023-03-30T12:39:44.720Z,3.50
2023-03-30T12:42:26.981Z,3.03
2023-03-30T12:45:26.646Z,3.10
2023-03-30T12:48:24.061Z,3.47
2023-03-30T12:51:04.567Z,3.23
2023-03-30T12:53:55.185Z,3.23
2023-03-30T12:56:33.229Z,3.40
2023-03-30T12:59:26.143Z,3.10
2023-03-30T13:02:11.839Z,3.70
2023-03-30T13:04:41.784Z,3.53
2023-03-30T13:07:18.365Z,2.83
2023-03-30T13:09:55.891Z,2.97
2023-03-30T13:12:33.996Z,2.90
2023-03-30T13:15:06.104Z,3.00
2023-03-30T13:17:51.006Z,3.23
2023-03-30T13:20:30.130Z,2.87
2023-03-30T13:23:24.741Z,2.23
2023-03-30T13:26:02.227Z,2.73
2023-03-30T13:28:45.196Z,2.60
2023-03-30T13:31:32.453Z,2.77
2023-03-30T13:34:14.685Z,2.57
2023-03-30T13:36:52.721Z,2.30
2023-03-30T13:39:30.247Z,2.70
2023-03-30T13:42:12.956Z,2.93
2023-03-30T13:44:56.742Z,3.40
2023-03-30T13:47:40.311Z,2.53
2023-03-30T13:50:17.181Z,2.60
2023-03-30T13:52:47.810Z,2.97
2023-03-30T13:55:20.092Z,2.17
2023-03-30T13:57:48.043Z,3.10
2023-03-30T14:00:33.320Z,2.73
2023-03-30T14:03:34.356Z,2.70
2023-03-30T14:06:05.781Z,2.90
2023-03-30T14:08:35.626Z,2.37
2023-03-30T14:11:12.191Z,2.40
2023-03-30T14:13:40.332Z,2.63
2023-03-30T14:16:08.789Z,2.27
2023-03-30T14:18:36.801Z,3.00
2023-03-30T14:21:10.233Z,1.80
2023-03-30T14:23:40.562Z,4.07
2023-03-30T14:26:16.680Z,2.30
2023-03-30T14:28:45.119Z,2.10
2023-03-30T14:31:15.878Z,2.40
2023-03-30T14:33:43.625Z,1.80
2023-03-30T14:36:13.739Z,1.53
2023-03-30T14:38:44.539Z,2.13
2023-03-30T14:41:18.612Z,2.10
2023-03-30T14:43:52.420Z,1.70
2023-03-30T14:46:20.348Z,2.10
2023-03-30T14:48:50.905Z,1.83
2023-03-30T14:51:28.166Z,1.73
2023-03-30T14:53:57.656Z,2.10
2023-03-30T14:56:28.116Z,1.60
2023-03-30T14:58:57.148Z,2.27
2023-03-30T15:01:31.605Z,2.10
2023-03-30T15:04:00.890Z,2.00
2023-03-30T15:06:31.118Z,2.10
2023-03-30T15:09:02.550Z,2.00
2023-03-30T15:11:34.517Z,2.33
2023-03-30T15:14:09.672Z,2.50
2023-03-30T15:16:38.546Z,2.50
2023-03-30T15:19:11.914Z,2.77
2023-03-30T15:21:40.130Z,2.10
2023-03-30T15:24:09.484Z,2.50
2023-03-30T15:26:45.154Z,2.30
2023-03-30T15:29:15.995Z,1.80
2023-03-30T15:31:45.154Z,1.70
2023-03-30T15:34:17.398Z,2.40
2023-03-30T15:36:45.684Z,2.00
2023-03-30T15:39:22.084Z,2.23
2023-03-30T15:42:01.319Z,1.70
2023-03-30T15:44:30.046Z,1.73
2023-03-30T15:46:59.655Z,1.40
2023-03-30T15:49:35.559Z,1.60
2023-03-30T15:52:13.792Z,1.73
2023-03-30T15:54:45.303Z,1.30
2023-03-30T15:57:21.122Z,1.23
2023-03-30T15:59:53.304Z,1.10
2023-03-30T16:02:23.628Z,1.10
2023-03-30T16:04:52.094Z,0.90
2023-03-30T16:07:21.715Z,1.20
2023-03-30T16:09:50.349Z,1.13
2023-03-30T16:12:21.646Z,0.87
2023-03-30T16:14:50.005Z,1.00
2023-03-30T16:17:19.172Z,1.03
2023-03-30T16:19:47.121Z,1.20
2023-03-30T16:22:16.673Z,1.83
2023-03-30T16:24:44.479Z,1.20
2023-03-30T16:27:13.280Z,1.23
2023-03-30T16:29:42.291Z,1.10
2023-03-30T16:32:09.932Z,1.00
2023-03-30T16:34:39.761Z,0.87
2023-03-30T16:37:11.267Z,1.40
2023-03-30T16:39:38.976Z,0.90
2023-03-30T16:42:06.660Z,0.90
2023-03-30T16:44:37.374Z,1.57
2023-03-30T16:47:07.300Z,1.30
2023-03-30T16:49:35.008Z,1.33
2023-03-30T16:52:06.148Z,0.97
2023-03-30T16:54:33.799Z,1.57
2023-03-30T16:57:01.952Z,1.20
2023-03-30T16:59:31.153Z,1.10
2023-03-30T17:01:58.868Z,1.57
2023-03-30T17:04:28.079Z,1.40
2023-03-30T17:06:56.176Z,1.40
2023-03-30T17:09:23.935Z,1.20
2023-03-30T17:11:52.005Z,1.30
2023-03-30T17:14:20.078Z,1.40
2023-03-30T17:16:47.954Z,1.20
2023-03-30T17:19:16.230Z,1.27
2023-03-30T17:21:46.005Z,1.40
2023-03-30T17:24:16.387Z,1.30
2023-03-30T17:26:48.833Z,1.13
2023-03-30T17:29:16.791Z,1.47
2023-03-30T17:31:46.025Z,1.23
2023-03-30T17:34:14.552Z,1.20
2023-03-30T17:36:42.285Z,1.33
2023-03-30T17:39:13.787Z,1.40
2023-03-30T17:41:44.387Z,1.70
2023-03-30T17:44:12.097Z,1.10
2023-03-30T17:46:46.736Z,1.17
2023-03-30T17:49:17.684Z,1.20
2023-03-30T17:51:45.545Z,1.30
2023-03-30T17:54:14.807Z,1.53
2023-03-30T17:56:42.470Z,1.20
2023-03-30T17:59:11.393Z,1.10
2023-03-30T18:01:39.655Z,1.77
2023-03-30T18:04:07.710Z,1.50
2023-03-30T18:06:35.493Z,2.27
2023-03-30T18:09:03.106Z,1.33
2023-03-30T18:11:32.187Z,1.50
2023-03-30T18:13:59.846Z,1.20
2023-03-30T18:16:27.929Z,1.73
2023-03-30T18:18:57.812Z,1.13
2023-03-30T18:21:26.425Z,1.23
2023-03-30T18:23:54.138Z,1.33
2023-03-30T18:26:26.950Z,1.90
2023-03-30T18:28:55.978Z,1.50
2023-03-30T18:31:25.294Z,1.30
2023-03-30T18:33:53.652Z,1.70
2023-03-30T18:36:22.557Z,1.30
2023-03-30T18:38:50.351Z,1.43
2023-03-30T18:41:18.094Z,1.80
2023-03-30T18:43:46.221Z,2.17
2023-03-30T18:46:15.583Z,1.60
2023-03-30T18:48:43.328Z,1.90
2023-03-30T18:51:12.428Z,1.50
2023-03-30T18:53:40.070Z,1.70
2023-03-30T18:56:10.312Z,2.27
2023-03-30T18:58:42.049Z,1.47
2023-03-30T19:01:12.758Z,1.30
2023-03-30T19:03:42.692Z,1.67
2023-03-30T19:06:13.920Z,1.50
2023-03-30T19:08:45.103Z,1.80
2023-03-30T19:11:23.194Z,1.50
2023-03-30T19:13:54.015Z,1.33
2023-03-30T19:16:22.291Z,1.70
2023-03-30T19:18:55.767Z,1.50
2023-03-30T19:21:24.113Z,2.00
2023-03-30T19:23:51.850Z,2.00
2023-03-30T19:26:19.554Z,1.60
2023-03-30T19:28:49.007Z,2.67
2023-03-30T19:31:16.896Z,2.03
2023-03-30T19:33:44.820Z,2.07
2023-03-30T19:36:13.881Z,1.73
2023-03-30T19:38:43.860Z,1.60
2023-03-30T19:41:11.732Z,1.70
2023-03-30T19:43:39.415Z,1.50
2023-03-30T19:46:08.633Z,1.70
2023-03-30T19:48:36.387Z,2.63
2023-03-30T19:51:04.360Z,1.53
2023-03-30T19:53:33.705Z,2.00
2023-03-30T19:56:01.324Z,2.17
2023-03-30T19:58:29.140Z,1.73
2023-03-30T20:00:58.115Z,1.43
2023-03-30T20:03:26.600Z,1.30
2023-03-30T20:05:54.441Z,1.87
2023-03-30T20:08:24.863Z,1.80
2023-03-30T20:10:54.978Z,1.90
2023-03-30T20:13:24.014Z,2.00
2023-03-30T20:15:56.274Z,2.07
2023-03-30T20:18:24.075Z,1.70
2023-03-30T20:20:51.887Z,1.60
2023-03-30T20:23:19.559Z,1.87
2023-03-30T20:25:49.150Z,1.70
2023-03-30T20:28:18.412Z,1.80
2023-03-30T20:30:46.079Z,2.00
2023-03-30T20:33:14.345Z,1.90
2023-03-30T20:35:43.018Z,1.67
2023-03-30T20:38:10.889Z,2.13
2023-03-30T20:40:38.575Z,1.90
2023-03-30T20:43:10.094Z,2.00
2023-03-30T20:45:48.099Z,1.83
2023-03-30T20:48:26.348Z,2.00
2023-03-30T20:50:55.389Z,2.00
2023-03-30T20:53:25.224Z,2.40
2023-03-30T20:55:52.910Z,2.13
2023-03-30T20:58:22.220Z,2.80
2023-03-30T21:00:52.966Z,2.13
2023-03-30T21:03:21.611Z,2.47
2023-03-30T21:06:00.045Z,2.13
2023-03-30T21:08:28.107Z,2.00
2023-03-30T21:10:56.060Z,2.60
2023-03-30T21:13:23.874Z,2.10
2023-03-30T21:15:58.304Z,2.13
2023-03-30T21:18:26.520Z,2.23
2023-03-30T21:20:54.776Z,2.37
2023-03-30T21:23:25.126Z,2.30
2023-03-30T21:25:56.524Z,2.00
2023-03-30T21:28:32.866Z,1.77
2023-03-30T21:31:04.934Z,1.83
2023-03-30T21:33:33.229Z,1.90
2023-03-30T21:36:01.474Z,1.80
2023-03-30T21:38:31.496Z,1.87
2023-03-30T21:41:00.966Z,1.67
2023-03-30T21:43:29.770Z,1.73
2023-03-30T21:45:59.284Z,1.90
2023-03-30T21:48:30.770Z,2.10
2023-03-30T21:51:00.042Z,1.50
2023-03-30T21:53:28.289Z,1.60
2023-03-30T21:55:56.228Z,2.03
2023-03-30T21:58:24.797Z,1.80
2023-03-30T22:01:01.299Z,2.10
2023-03-30T22:03:45.802Z,1.53
2023-03-30T22:06:16.050Z,1.70
2023-03-30T22:08:51.424Z,1.87
2023-03-30T22:11:21.311Z,1.60
2023-03-30T22:13:49.761Z,1.80
2023-03-30T22:16:19.660Z,1.80
2023-03-30T22:18:48.985Z,1.50
2023-03-30T22:21:18.282Z,1.60
2023-03-30T22:23:46.475Z,1.73
2023-03-30T22:26:14.712Z,2.07
2023-03-30T22:28:43.009Z,2.10
2023-03-30T22:31:12.608Z,1.30
2023-03-30T22:33:40.609Z,1.67
2023-03-30T22:36:18.842Z,2.13
2023-03-30T22:38:46.870Z,1.90
2023-03-30T22:41:14.534Z,1.63
2023-03-30T22:43:42.283Z,1.80
2023-03-30T22:46:10.359Z,1.50
2023-03-30T22:48:41.347Z,2.13
2023-03-30T22:51:14.227Z,1.87
2023-03-30T22:53:43.384Z,1.60
2023-03-30T22:56:11.757Z,2.40
2023-03-30T22:58:39.439Z,1.67
2023-03-30T23:01:10.306Z,1.90
2023-03-30T23:03:38.552Z,1.67
2023-03-30T23:06:06.706Z,2.43
2023-03-30T23:08:34.463Z,1.60
2023-03-30T23:11:06.331Z,1.40
2023-03-30T23:13:37.603Z,2.10
2023-03-30T23:16:23.790Z,1.57
2023-03-30T23:18:51.864Z,1.70
2023-03-30T23:21:22.227Z,1.70
2023-03-30T23:23:50.120Z,1.70
2023-03-30T23:26:19.501Z,2.33
2023-03-30T23:28:47.212Z,1.60
2023-03-30T23:31:17.690Z,1.60
2023-03-30T23:33:48.263Z,1.20
2023-03-30T23:36:16.678Z,1.73
2023-03-30T23:38:44.717Z,2.33
2023-03-30T23:41:16.835Z,2.07
2023-03-30T23:43:46.895Z,2.07
2023-03-30T23:46:15.566Z,2.20
2023-03-30T23:48:43.523Z,2.60
2023-03-30T23:51:12.285Z,2.10
2023-03-30T23:53:42.174Z,2.47
2023-03-30T23:56:12.896Z,2.07
2023-03-30T23:58:41.465Z,2.07
